Time;durP1;ratioP1;P1;durP2;ratioP2;P2;SDS_P1;SDS_P2;PMS_P1;PMS_P2;Temp;Humidity;BMP_temperature;BMP_pressure;BME280_temperature;BME280_humidity;BME280_pressure;Samples;Min_cycle;Max_cycle;Signal;HPM_P1;HPM_P2
2021/04/03 00:00:24;;;;;;;19.17;3.77;;;7.00;99.90;;;;;;5029054;28;20602;-84
2021/04/03 00:02:51;;;;;;;21.57;3.90;;;7.00;99.90;;;;;;5040210;28;20218;-86
2021/04/03 00:05:21;;;;;;;18.60;4.97;;;7.00;99.90;;;;;;5047774;28;20206;-82
2021/04/03 00:07:47;;;;;;;17.83;4.63;;;7.00;99.90;;;;;;5047756;28;20260;-80
2021/04/03 00:10:17;;;;;;;24.13;5.00;;;7.00;99.90;;;;;;5038245;28;20297;-83
2021/04/03 00:12:44;;;;;;;18.73;3.77;;;7.00;99.90;;;;;;5032152;28;20206;-84
2021/04/03 00:15:12;;;;;;;24.57;4.93;;;7.00;99.90;;;;;;5031345;28;20206;-83
2021/04/03 00:17:38;;;;;;;18.13;4.83;;;7.00;99.90;;;;;;5030392;28;20203;-81
2021/04/03 00:20:07;;;;;;;20.43;3.73;;;7.00;99.90;;;;;;5031227;28;20250;-81
2021/04/03 00:22:34;;;;;;;22.70;4.13;;;7.00;99.90;;;;;;5029790;28;20203;-85
2021/04/03 00:25:00;;;;;;;14.27;3.70;;;7.00;99.90;;;;;;5030170;28;20725;-81
2021/04/03 00:27:26;;;;;;;22.37;4.63;;;7.00;99.90;;;;;;5030546;28;20210;-83
2021/04/03 00:29:53;;;;;;;20.03;3.90;;;7.10;99.90;;;;;;5029958;28;20198;-82
2021/04/03 00:32:19;;;;;;;22.40;4.27;;;7.10;99.90;;;;;;5029482;28;20202;-83
2021/04/03 00:34:45;;;;;;;19.73;3.90;;;7.10;99.90;;;;;;5029517;28;20206;-82
2021/04/03 00:37:11;;;;;;;18.33;4.30;;;7.10;99.90;;;;;;5029383;28;20695;-84
2021/04/03 00:39:38;;;;;;;16.20;4.70;;;7.10;99.90;;;;;;5028970;28;20203;-83
2021/04/03 00:42:16;;;;;;;24.47;4.03;;;7.10;99.90;;;;;;5028842;28;20198;-84
2021/04/03 00:44:46;;;;;;;26.27;5.50;;;7.10;99.90;;;;;;5029724;28;20348;-78
2021/04/03 00:47:13;;;;;;;22.50;3.60;;;7.10;99.90;;;;;;5028052;28;20234;-80
2021/04/03 00:49:39;;;;;;;15.33;3.73;;;7.10;99.90;;;;;;5028052;28;20616;-80
2021/04/03 00:52:08;;;;;;;18.33;4.17;;;7.10;99.90;;;;;;5028077;28;20210;-83
2021/04/03 00:54:36;;;;;;;14.80;3.43;;;7.10;99.90;;;;;;5028539;28;20206;-78
2021/04/03 00:57:04;;;;;;;14.57;3.60;;;7.00;99.90;;;;;;5028557;28;20226;-83
2021/04/03 00:59:30;;;;;;;15.57;3.57;;;7.00;99.90;;;;;;5028327;28;20217;-83
2021/04/03 01:01:57;;;;;;;22.50;4.07;;;7.10;99.90;;;;;;5028392;28;20249;-78
2021/04/03 01:04:23;;;;;;;19.77;3.40;;;7.00;99.90;;;;;;5026594;28;20221;-81
2021/04/03 01:06:50;;;;;;;22.60;4.00;;;7.10;99.90;;;;;;5031909;28;20202;-81
2021/04/03 01:09:16;;;;;;;17.50;3.30;;;7.00;99.90;;;;;;5053317;28;20210;-80
2021/04/03 01:11:57;;;;;;;14.60;3.50;;;7.00;99.90;;;;;;5025053;28;20817;-80
2021/04/03 01:14:33;;;;;;;15.40;4.30;;;7.00;99.90;;;;;;5025992;28;20195;-79
2021/04/03 01:17:09;;;;;;;13.73;3.70;;;7.00;99.90;;;;;;5026438;28;20210;-79
2021/04/03 01:20:11;;;;;;;12.17;3.53;;;7.00;99.90;;;;;;5025204;28;20705;-76
2021/04/03 01:23:02;;;;;;;25.90;5.10;;;7.10;99.90;;;;;;5024269;28;20692;-77
2021/04/03 01:25:40;;;;;;;22.17;4.27;;;7.00;99.90;;;;;;5018778;28;20975;-76
2021/04/03 01:28:35;;;;;;;25.23;4.00;;;7.10;99.90;;;;;;5024802;28;20490;-82
2021/04/03 01:31:03;;;;;;;14.07;4.10;;;7.00;99.90;;;;;;5024719;28;20211;-80
2021/04/03 01:33:33;;;;;;;14.43;4.03;;;7.00;99.90;;;;;;5023407;28;20544;-82
2021/04/03 01:36:04;;;;;;;21.30;4.07;;;7.00;99.90;;;;;;5024282;28;20206;-80
2021/04/03 01:38:34;;;;;;;19.97;3.37;;;7.10;99.90;;;;;;5024604;28;20622;-78
2021/04/03 01:41:02;;;;;;;21.90;4.20;;;7.10;99.90;;;;;;5024745;28;20195;-77
2021/04/03 01:43:36;;;;;;;24.30;4.80;;;7.00;99.90;;;;;;5024058;28;20281;-80
2021/04/03 01:46:04;;;;;;;20.43;4.00;;;7.00;99.90;;;;;;5023418;28;20268;-76
2021/04/03 01:48:33;;;;;;;17.80;3.10;;;7.00;99.90;;;;;;5023447;28;20242;-78
2021/04/03 01:51:01;;;;;;;18.33;3.60;;;7.00;99.90;;;;;;5023005;28;20209;-77
2021/04/03 01:53:27;;;;;;;23.53;3.40;;;7.00;99.90;;;;;;5023266;28;20253;-78
2021/04/03 01:55:56;;;;;;;18.80;4.47;;;7.00;99.90;;;;;;5025997;28;20206;-79
2021/04/03 01:58:24;;;;;;;17.37;4.03;;;7.00;99.90;;;;;;5043657;28;20198;-78
2021/04/03 02:00:51;;;;;;;17.73;3.60;;;7.10;99.90;;;;;;5037262;28;20210;-78
2021/04/03 02:03:19;;;;;;;16.33;4.07;;;7.00;99.90;;;;;;5023554;28;20968;-78
2021/04/03 02:05:48;;;;;;;24.50;4.67;;;7.00;99.90;;;;;;5024996;28;20298;-80
2021/04/03 02:08:15;;;;;;;19.40;4.23;;;7.10;99.90;;;;;;5052624;28;20214;-84
2021/04/03 02:10:43;;;;;;;16.30;4.67;;;7.10;99.90;;;;;;5029515;28;20341;-83
2021/04/03 02:13:11;;;;;;;25.27;3.90;;;7.10;99.90;;;;;;5024136;28;20202;-79
2021/04/03 02:15:37;;;;;;;26.30;4.43;;;7.10;99.90;;;;;;5024707;28;20211;-80
2021/04/03 02:18:06;;;;;;;17.03;3.93;;;7.10;99.90;;;;;;5024795;28;20199;-79
2021/04/03 02:20:34;;;;;;;17.73;4.10;;;7.10;99.90;;;;;;5024194;28;20230;-79
2021/04/03 02:23:01;;;;;;;26.37;4.17;;;7.10;99.90;;;;;;5035241;28;20226;-78
2021/04/03 02:25:27;;;;;;;22.50;4.47;;;7.10;99.90;;;;;;5042653;28;20196;-79
2021/04/03 02:27:54;;;;;;;19.77;5.03;;;7.10;99.90;;;;;;5023436;28;20203;-79
2021/04/03 02:30:23;;;;;;;20.60;4.10;;;7.10;99.90;;;;;;5022730;28;20203;-78
2021/04/03 02:32:51;;;;;;;17.13;4.50;;;7.00;99.90;;;;;;5043261;28;20213;-78
2021/04/03 02:35:19;;;;;;;15.40;3.97;;;7.00;99.90;;;;;;5043209;28;20194;-78
2021/04/03 02:37:47;;;;;;;24.90;4.93;;;7.10;99.90;;;;;;5044326;28;20202;-76
2021/04/03 02:40:17;;;;;;;16.30;4.77;;;7.00;99.90;;;;;;5043698;28;20509;-77
2021/04/03 02:42:51;;;;;;;21.50;4.17;;;7.10;99.90;;;;;;5044087;28;20233;-77
2021/04/03 02:45:20;;;;;;;22.03;4.53;;;7.00;99.90;;;;;;5043721;28;20190;-78
2021/04/03 02:47:49;;;;;;;24.60;5.80;;;7.00;99.90;;;;;;5032947;28;20249;-78
2021/04/03 02:50:18;;;;;;;18.30;4.33;;;7.00;99.90;;;;;;5043580;28;20198;-77
2021/04/03 02:52:50;;;;;;;25.77;5.40;;;7.00;99.90;;;;;;5028849;28;20210;-81
2021/04/03 02:55:19;;;;;;;26.60;5.43;;;7.00;99.90;;;;;;5024276;28;20268;-77
2021/04/03 02:57:46;;;;;;;24.37;5.40;;;7.00;99.90;;;;;;5023442;28;20202;-76
2021/04/03 03:00:14;;;;;;;27.80;5.37;;;7.00;99.90;;;;;;5023751;28;20198;-78
2021/04/03 03:02:41;;;;;;;25.30;4.33;;;7.00;99.90;;;;;;5025217;28;20210;-78
2021/04/03 03:05:09;;;;;;;15.97;3.57;;;7.00;99.90;;;;;;5022477;28;20203;-79
2021/04/03 03:07:40;;;;;;;26.00;5.00;;;7.00;99.90;;;;;;5023745;28;20211;-77
2021/04/03 03:10:08;;;;;;;18.40;4.50;;;7.00;99.90;;;;;;5034731;28;20198;-77
2021/04/03 03:12:37;;;;;;;18.60;4.53;;;7.00;99.90;;;;;;5042870;28;20210;-77
2021/04/03 03:15:05;;;;;;;13.87;3.90;;;7.00;99.90;;;;;;5039187;28;20217;-77
2021/04/03 03:17:32;;;;;;;12.93;3.83;;;7.00;99.90;;;;;;5024061;28;20225;-78
2021/04/03 03:20:01;;;;;;;27.60;4.80;;;7.00;99.90;;;;;;5032311;28;20230;-79
2021/04/03 03:22:28;;;;;;;21.33;4.73;;;7.00;99.90;;;;;;5044429;28;20276;-79
2021/04/03 03:24:54;;;;;;;25.77;4.83;;;7.00;99.90;;;;;;5042956;28;20636;-81
2021/04/03 03:27:25;;;;;;;18.57;4.27;;;7.00;99.90;;;;;;5024890;28;20247;-77
2021/04/03 03:29:51;;;;;;;22.83;5.27;;;7.00;99.90;;;;;;5024424;28;20218;-80
2021/04/03 03:32:18;;;;;;;18.57;4.33;;;7.00;99.90;;;;;;5025057;28;20213;-81
2021/04/03 03:34:44;;;;;;;23.07;4.53;;;7.00;99.90;;;;;;5024367;28;20925;-80
2021/04/03 03:37:10;;;;;;;30.67;5.83;;;6.90;99.90;;;;;;5024924;28;20591;-82
2021/04/03 03:39:38;;;;;;;18.97;5.63;;;6.90;99.90;;;;;;5023288;28;20527;-82
2021/04/03 03:42:05;;;;;;;39.00;8.90;;;6.80;99.90;;;;;;5023877;28;20210;-84
2021/04/03 03:44:32;;;;;;;25.40;5.10;;;6.80;99.90;;;;;;5024411;28;20227;-81
2021/04/03 03:46:59;;;;;;;29.23;7.40;;;6.90;99.90;;;;;;5023233;28;20238;-78
2021/04/03 03:49:25;;;;;;;22.47;5.07;;;6.90;99.90;;;;;;5024230;28;20206;-80
2021/04/03 03:51:51;;;;;;;19.93;4.93;;;6.90;99.90;;;;;;5024790;28;20614;-79
2021/04/03 03:54:18;;;;;;;29.60;5.13;;;6.90;99.90;;;;;;5023196;28;20241;-83
2021/04/03 03:56:44;;;;;;;31.73;5.00;;;6.80;99.90;;;;;;5024084;28;20486;-79
2021/04/03 03:59:10;;;;;;;21.63;4.73;;;6.80;99.90;;;;;;5023030;28;20240;-84
2021/04/03 04:01:37;;;;;;;28.33;5.80;;;6.70;99.90;;;;;;5022940;28;20202;-78
2021/04/03 04:04:04;;;;;;;26.73;6.40;;;6.60;99.90;;;;;;5027728;28;20641;-79
2021/04/03 04:06:30;;;;;;;24.20;6.33;;;6.60;99.90;;;;;;5043126;28;20667;-80
2021/04/03 04:08:56;;;;;;;25.77;5.13;;;6.60;99.90;;;;;;5027837;28;20269;-79
2021/04/03 04:11:23;;;;;;;22.17;4.80;;;6.50;99.90;;;;;;5023245;28;20214;-79
2021/04/03 04:13:49;;;;;;;23.87;4.67;;;6.40;99.90;;;;;;5038860;28;20913;-82
2021/04/03 04:16:15;;;;;;;21.10;5.00;;;6.40;99.90;;;;;;5043084;28;20210;-79
2021/04/03 04:18:42;;;;;;;26.87;4.97;;;6.40;99.90;;;;;;5037270;28;20285;-80
2021/04/03 04:21:08;;;;;;;22.53;4.10;;;6.30;99.90;;;;;;5023197;28;20265;-78
2021/04/03 04:23:35;;;;;;;29.03;4.70;;;6.20;99.90;;;;;;5021193;28;20708;-78
2021/04/03 04:26:01;;;;;;;19.17;5.10;;;6.30;99.90;;;;;;5022647;28;20241;-81
2021/04/03 04:28:27;;;;;;;23.23;6.17;;;6.30;99.90;;;;;;5025723;28;20285;-81
2021/04/03 04:30:54;;;;;;;22.63;5.90;;;6.30;99.90;;;;;;5025408;28;20201;-81
2021/04/03 04:33:20;;;;;;;22.10;4.80;;;6.20;99.90;;;;;;5026285;28;20229;-81
2021/04/03 04:35:47;;;;;;;24.87;6.00;;;6.10;99.90;;;;;;5025434;28;20215;-82
2021/04/03 04:38:13;;;;;;;19.60;5.20;;;6.00;99.90;;;;;;5023213;28;20250;-82
2021/04/03 04:40:40;;;;;;;21.33;5.07;;;6.10;99.90;;;;;;5025223;28;20212;-80
2021/04/03 04:43:06;;;;;;;22.63;5.07;;;6.10;99.90;;;;;;5022274;28;20214;-78
2021/04/03 04:45:32;;;;;;;20.93;4.33;;;6.10;99.90;;;;;;5022430;28;20199;-79
2021/04/03 04:47:58;;;;;;;22.33;4.33;;;6.10;99.90;;;;;;5034937;28;20280;-78
2021/04/03 04:50:25;;;;;;;31.40;5.07;;;6.10;99.90;;;;;;5042154;28;20210;-80
2021/04/03 04:52:52;;;;;;;23.97;6.17;;;6.00;99.90;;;;;;5042721;28;20206;-79
2021/04/03 04:55:18;;;;;;;22.27;6.07;;;6.00;99.90;;;;;;5040188;28;20202;-81
2021/04/03 04:57:44;;;;;;;25.77;5.87;;;6.00;99.90;;;;;;5028908;28;20203;-81
2021/04/03 05:00:12;;;;;;;28.23;6.17;;;5.90;99.90;;;;;;5042655;28;20214;-78
2021/04/03 05:02:39;;;;;;;24.37;6.27;;;5.80;99.90;;;;;;5046779;28;20189;-81
2021/04/03 05:05:06;;;;;;;26.13;5.20;;;5.80;99.90;;;;;;5028134;28;20245;-81
2021/04/03 05:07:32;;;;;;;27.10;5.50;;;5.70;99.90;;;;;;5044667;28;20198;-81
2021/04/03 05:09:59;;;;;;;20.97;4.73;;;5.70;99.90;;;;;;5044025;28;20200;-82
2021/04/03 05:12:26;;;;;;;27.43;5.70;;;5.70;99.90;;;;;;5027824;28;20203;-82
2021/04/03 05:14:52;;;;;;;24.13;6.47;;;5.70;99.90;;;;;;5031208;28;20217;-82
2021/04/03 05:17:20;;;;;;;26.40;5.93;;;5.60;99.90;;;;;;5047512;28;20279;-81
2021/04/03 05:19:47;;;;;;;23.03;5.60;;;5.70;99.90;;;;;;5039533;28;20230;-80
2021/04/03 05:22:13;;;;;;;22.33;5.53;;;5.70;99.90;;;;;;5027049;28;20215;-78
2021/04/03 05:24:40;;;;;;;19.73;4.33;;;5.70;99.90;;;;;;5029075;28;20622;-81
2021/04/03 05:27:08;;;;;;;24.57;5.73;;;5.70;99.90;;;;;;5043047;28;20210;-81
2021/04/03 05:29:34;;;;;;;35.67;6.10;;;5.70;99.90;;;;;;5027868;28;20492;-80
2021/04/03 05:32:00;;;;;;;26.07;5.73;;;5.70;99.90;;;;;;5027229;28;20844;-78
2021/04/03 05:34:26;;;;;;;28.03;6.40;;;5.70;99.90;;;;;;5026901;28;20210;-78
2021/04/03 05:36:53;;;;;;;24.43;4.80;;;5.60;99.90;;;;;;5028205;28;20257;-79
2021/04/03 05:39:19;;;;;;;28.73;5.47;;;5.60;99.90;;;;;;5025681;28;20202;-80
2021/04/03 05:41:46;;;;;;;25.77;5.10;;;5.60;99.90;;;;;;5025623;28;20689;-78
2021/04/03 05:44:15;;;;;;;22.70;5.43;;;5.60;99.90;;;;;;5026229;28;20230;-79
2021/04/03 05:46:43;;;;;;;24.20;6.60;;;5.70;99.90;;;;;;5025747;28;20198;-80
2021/04/03 05:49:10;;;;;;;31.40;6.60;;;5.70;99.90;;;;;;5026836;28;20210;-81
2021/04/03 05:51:38;;;;;;;28.03;6.33;;;5.80;99.90;;;;;;5034718;28;20561;-81
2021/04/03 05:54:06;;;;;;;29.47;5.00;;;5.80;99.90;;;;;;5044470;28;20205;-79
2021/04/03 05:56:32;;;;;;;30.17;5.60;;;5.90;99.90;;;;;;5038176;28;20202;-80
2021/04/03 05:58:59;;;;;;;23.67;4.70;;;5.90;99.90;;;;;;5023405;28;20191;-79
2021/04/03 06:01:26;;;;;;;26.70;5.23;;;5.90;99.90;;;;;;5022681;28;20669;-77
2021/04/03 06:03:54;;;;;;;40.43;7.80;;;5.90;99.90;;;;;;5023658;28;20277;-78
2021/04/03 06:06:24;;;;;;;23.23;5.13;;;5.90;99.90;;;;;;5022865;28;20206;-79
2021/04/03 06:08:51;;;;;;;23.97;4.30;;;5.90;99.90;;;;;;5062524;28;20267;-79
2021/04/03 06:11:19;;;;;;;31.10;6.03;;;6.00;99.90;;;;;;5062927;28;20511;-77
2021/04/03 06:14:04;;;;;;;30.23;6.77;;;6.00;99.90;;;;;;5054403;28;20665;-77
2021/04/03 06:16:32;;;;;;;31.23;6.67;;;6.00;99.90;;;;;;5023629;28;20233;-77
2021/04/03 06:19:15;;;;;;;25.67;6.00;;;6.00;99.90;;;;;;5042269;28;20233;-76
2021/04/03 06:21:44;;;;;;;27.77;5.93;;;6.10;99.90;;;;;;5038193;28;20198;-78
2021/04/03 06:24:25;;;;;;;26.37;4.80;;;6.10;99.90;;;;;;5023543;28;20535;-79
2021/04/03 06:26:53;;;;;;;22.97;5.37;;;6.00;99.90;;;;;;5023851;28;20233;-77
2021/04/03 06:29:27;;;;;;;27.40;5.10;;;6.10;99.90;;;;;;5022519;28;20222;-77
2021/04/03 06:31:56;;;;;;;23.87;6.13;;;6.20;99.90;;;;;;5023762;28;20206;-78
2021/04/03 06:34:27;;;;;;;22.23;6.13;;;6.30;99.90;;;;;;5023364;28;20199;-78
2021/04/03 06:36:54;;;;;;;21.07;5.40;;;6.30;99.90;;;;;;5023024;28;20222;-81
2021/04/03 06:39:20;;;;;;;27.90;6.67;;;6.30;99.90;;;;;;5023677;28;20202;-80
2021/04/03 06:41:47;;;;;;;26.03;5.37;;;6.40;99.90;;;;;;5024162;28;20261;-78
2021/04/03 06:44:13;;;;;;;26.97;5.07;;;6.40;99.90;;;;;;5000939;28;20227;-76
2021/04/03 06:46:41;;;;;;;30.57;6.07;;;6.40;99.90;;;;;;5022502;28;20621;-79
2021/04/03 06:49:09;;;;;;;23.53;5.57;;;6.50;99.90;;;;;;5022784;28;20198;-77
2021/04/03 06:51:36;;;;;;;21.53;5.13;;;6.50;99.90;;;;;;5022518;28;20198;-78
2021/04/03 06:54:05;;;;;;;21.20;4.47;;;6.60;99.90;;;;;;5023690;28;20229;-77
2021/04/03 06:56:34;;;;;;;20.00;5.30;;;6.70;99.90;;;;;;5023716;28;20221;-82
2021/04/03 06:59:32;;;;;;;23.53;5.70;;;6.80;99.90;;;;;;5018992;28;20203;-82
2021/04/03 07:01:59;;;;;;;38.47;6.23;;;6.90;99.90;;;;;;5024802;28;20554;-82
2021/04/03 07:04:30;;;;;;;25.67;5.33;;;6.90;99.90;;;;;;5025712;28;20225;-82
2021/04/03 07:06:57;;;;;;;29.70;5.60;;;7.00;99.90;;;;;;5030882;28;20194;-77
2021/04/03 07:09:25;;;;;;;28.20;6.00;;;7.10;99.90;;;;;;5062946;28;20393;-85
2021/04/03 07:11:52;;;;;;;28.43;7.60;;;7.20;99.90;;;;;;5050753;28;20217;-87
2021/04/03 07:14:20;;;;;;;21.83;4.90;;;7.20;99.90;;;;;;5023995;28;20206;-78
2021/04/03 07:16:48;;;;;;;22.53;5.33;;;7.30;99.90;;;;;;5023103;28;20206;-78
2021/04/03 07:19:16;;;;;;;25.30;4.43;;;7.30;99.90;;;;;;5021611;28;20222;-80
2021/04/03 07:21:44;;;;;;;19.80;5.47;;;7.30;99.90;;;;;;5021923;28;20207;-78
2021/04/03 07:24:12;;;;;;;26.00;5.67;;;7.40;99.90;;;;;;5022374;28;20328;-78
2021/04/03 07:26:41;;;;;;;21.60;4.50;;;7.40;99.90;;;;;;5021833;28;20225;-79
2021/04/03 07:29:07;;;;;;;20.53;5.43;;;7.50;99.90;;;;;;5021665;28;20198;-79
2021/04/03 07:31:39;;;;;;;19.43;4.10;;;7.50;99.90;;;;;;5022705;28;20619;-79
2021/04/03 07:34:05;;;;;;;20.00;4.73;;;7.60;99.90;;;;;;5022172;28;20222;-80
2021/04/03 07:36:33;;;;;;;25.40;4.60;;;7.70;99.90;;;;;;5022424;28;20206;-79
2021/04/03 07:39:02;;;;;;;25.40;5.17;;;7.80;99.90;;;;;;5022373;28;20809;-85
2021/04/03 07:41:36;;;;;;;20.80;5.37;;;7.80;99.90;;;;;;5023332;28;20212;-76
2021/04/03 07:44:13;;;;;;;21.63;5.83;;;7.90;99.90;;;;;;5022571;28;20341;-77
2021/04/03 07:46:42;;;;;;;19.50;5.77;;;8.00;99.90;;;;;;5023139;28;20203;-82
2021/04/03 07:49:10;;;;;;;17.37;4.47;;;8.00;99.90;;;;;;5024048;28;20485;-79
2021/04/03 07:51:47;;;;;;;30.00;6.10;;;8.10;99.90;;;;;;5022925;28;20253;-77
2021/04/03 07:54:32;;;;;;;21.63;4.07;;;8.20;99.90;;;;;;5022964;28;20195;-78
2021/04/03 07:57:09;;;;;;;23.30;6.63;;;8.40;99.90;;;;;;5026955;28;20633;-87
2021/04/03 07:59:47;;;;;;;21.37;4.10;;;8.50;99.90;;;;;;5028427;28;20229;-87
2021/04/03 08:02:16;;;;;;;30.87;6.17;;;8.60;99.90;;;;;;5026878;28;20207;-86
2021/04/03 08:04:42;;;;;;;22.20;5.20;;;8.60;99.90;;;;;;5026161;28;20234;-82
2021/04/03 08:07:08;;;;;;;20.27;4.83;;;8.70;99.90;;;;;;5035813;28;20197;-84
2021/04/03 08:09:37;;;;;;;27.03;6.13;;;8.70;99.90;;;;;;5035745;28;20747;-86
2021/04/03 08:12:04;;;;;;;19.60;4.97;;;8.70;99.90;;;;;;5027150;28;20222;-90
2021/04/03 08:14:32;;;;;;;21.50;4.87;;;8.70;99.90;;;;;;5029133;28;20206;-88
2021/04/03 08:16:59;;;;;;;20.10;4.57;;;8.70;99.90;;;;;;5028660;28;20202;-85
2021/04/03 08:19:27;;;;;;;22.20;5.10;;;8.80;99.90;;;;;;5025422;28;20230;-85
2021/04/03 08:21:53;;;;;;;19.63;4.33;;;8.90;99.90;;;;;;5023162;28;20214;-83
2021/04/03 08:24:20;;;;;;;24.83;6.87;;;8.90;99.90;;;;;;5027057;28;20276;-86
2021/04/03 08:26:49;;;;;;;23.90;4.40;;;8.80;99.90;;;;;;5023723;28;20230;-86
2021/04/03 08:29:23;;;;;;;15.40;4.63;;;8.80;99.90;;;;;;5027881;28;20213;-88
2021/04/03 08:31:51;;;;;;;17.53;4.23;;;8.70;99.90;;;;;;5030983;28;20214;-79
2021/04/03 08:34:17;;;;;;;17.00;3.83;;;8.70;99.90;;;;;;5031368;28;20689;-88
2021/04/03 08:36:44;;;;;;;22.17;4.10;;;8.90;99.90;;;;;;5031063;28;20229;-88
2021/04/03 08:39:12;;;;;;;18.60;4.40;;;9.00;99.90;;;;;;5030244;28;20205;-85
2021/04/03 08:41:40;;;;;;;16.83;4.10;;;9.20;99.90;;;;;;5030507;28;20210;-86
2021/04/03 08:44:16;;;;;;;18.13;3.47;;;9.30;99.90;;;;;;5030050;28;20223;-80
2021/04/03 08:46:43;;;;;;;16.83;4.57;;;9.40;99.90;;;;;;5030090;28;20261;-80
2021/04/03 08:49:10;;;;;;;23.57;5.63;;;9.60;99.90;;;;;;5027605;28;20202;-82
2021/04/03 08:51:36;;;;;;;21.40;5.13;;;9.70;99.90;;;;;;5029720;28;20203;-83
2021/04/03 08:54:03;;;;;;;17.43;4.47;;;9.80;99.90;;;;;;5030034;28;20213;-81
2021/04/03 08:56:32;;;;;;;25.00;5.00;;;9.90;99.90;;;;;;5026910;28;20618;-79
2021/04/03 08:59:00;;;;;;;17.47;3.90;;;10.00;99.90;;;;;;5026642;28;20209;-78
2021/04/03 09:01:29;;;;;;;20.73;3.87;;;10.20;99.90;;;;;;5032074;28;20210;-86
2021/04/03 09:04:03;;;;;;;17.80;4.27;;;10.30;99.90;;;;;;5031194;28;20531;-85
2021/04/03 09:06:44;;;;;;;19.80;4.43;;;10.60;99.90;;;;;;5029632;28;20935;-80
2021/04/03 09:09:11;;;;;;;18.87;4.70;;;10.80;99.90;;;;;;5030705;28;20206;-84
2021/04/03 09:11:40;;;;;;;15.37;3.47;;;10.80;99.90;;;;;;5031390;28;20205;-83
2021/04/03 09:14:06;;;;;;;12.90;3.80;;;10.70;99.90;;;;;;5030788;28;20202;-84
2021/04/03 09:16:38;;;;;;;19.70;4.10;;;10.50;99.90;;;;;;5030145;28;20214;-85
2021/04/03 09:19:05;;;;;;;19.33;5.13;;;10.40;99.90;;;;;;5029390;28;20214;-83
2021/04/03 09:21:32;;;;;;;20.37;5.10;;;10.60;99.90;;;;;;5028985;28;20202;-85
2021/04/03 09:23:58;;;;;;;18.57;4.60;;;10.70;99.90;;;;;;5030204;28;20233;-80
2021/04/03 09:26:35;;;;;;;17.10;4.00;;;10.70;99.90;;;;;;5050604;28;20639;-85
2021/04/03 09:29:07;;;;;;;16.73;3.53;;;10.50;99.90;;;;;;5049719;28;20193;-83
2021/04/03 09:31:45;;;;;;;22.93;3.80;;;10.60;99.90;;;;;;5049684;28;20205;-85
2021/04/03 09:34:15;;;;;;;20.83;4.20;;;10.80;99.90;;;;;;5031162;28;20214;-80
2021/04/03 09:36:43;;;;;;;14.90;4.57;;;11.00;99.90;;;;;;5031182;28;20194;-86
2021/04/03 09:39:19;;;;;;;16.70;4.90;;;11.20;99.90;;;;;;5028102;28;20257;-81
2021/04/03 09:41:47;;;;;;;14.03;4.03;;;11.50;99.90;;;;;;5025824;28;20187;-81
2021/04/03 09:44:14;;;;;;;17.17;4.20;;;11.70;99.90;;;;;;5027160;28;20321;-82
2021/04/03 09:46:40;;;;;;;15.37;4.00;;;11.50;99.90;;;;;;5027804;28;20683;-79
2021/04/03 09:49:09;;;;;;;15.80;4.20;;;11.50;99.90;;;;;;5027300;28;20202;-81
2021/04/03 09:51:36;;;;;;;18.00;4.40;;;11.20;99.90;;;;;;5027192;28;20198;-84
2021/04/03 09:54:03;;;;;;;21.13;4.07;;;10.90;99.90;;;;;;5026352;28;20198;-82
2021/04/03 09:56:29;;;;;;;18.93;3.70;;;10.70;99.90;;;;;;5026766;28;20245;-80
2021/04/03 09:58:57;;;;;;;16.60;4.43;;;10.60;99.90;;;;;;5025150;28;20253;-78
2021/04/03 10:01:23;;;;;;;12.50;3.83;;;10.70;99.90;;;;;;5025729;28;20682;-89
2021/04/03 10:03:51;;;;;;;21.53;5.43;;;10.90;99.90;;;;;;5030478;28;20249;-86
2021/04/03 10:06:18;;;;;;;16.77;3.77;;;11.10;99.90;;;;;;5030806;28;20234;-84
2021/04/03 10:08:45;;;;;;;19.27;5.37;;;11.40;99.90;;;;;;5037331;28;20210;-84
2021/04/03 10:11:11;;;;;;;22.20;4.90;;;11.70;99.90;;;;;;5050014;28;20206;-83
2021/04/03 10:13:37;;;;;;;19.87;4.43;;;12.00;99.90;;;;;;5049343;28;20481;-82
2021/04/03 10:16:04;;;;;;;21.30;4.67;;;12.20;99.90;;;;;;5049443;28;20209;-84
2021/04/03 10:18:30;;;;;;;23.03;4.30;;;12.20;99.90;;;;;;5050844;28;20198;-85
2021/04/03 10:20:57;;;;;;;17.30;4.83;;;12.20;99.90;;;;;;5050142;28;20206;-80
2021/04/03 10:23:24;;;;;;;17.77;4.20;;;11.90;99.90;;;;;;5042012;28;20210;-85
2021/04/03 10:25:50;;;;;;;20.57;4.10;;;11.80;99.90;;;;;;5031168;28;20222;-85
2021/04/03 10:28:17;;;;;;;19.63;4.90;;;11.60;99.90;;;;;;5028984;28;20729;-88
2021/04/03 10:30:43;;;;;;;16.47;3.83;;;11.80;99.90;;;;;;5030135;28;20286;-87
2021/04/03 10:33:09;;;;;;;21.60;5.07;;;11.70;99.90;;;;;;5028756;28;20218;-82
2021/04/03 10:35:36;;;;;;;18.60;3.83;;;11.60;99.90;;;;;;5027585;28;20206;-87
2021/04/03 10:38:02;;;;;;;15.03;3.97;;;11.40;99.90;;;;;;5028815;28;20257;-85
2021/04/03 10:40:29;;;;;;;15.43;3.83;;;11.30;99.90;;;;;;5030469;28;20214;-82
2021/04/03 10:42:56;;;;;;;21.00;3.97;;;11.40;99.90;;;;;;5029391;28;20564;-83
2021/04/03 10:45:22;;;;;;;17.53;3.97;;;11.30;99.90;;;;;;5028834;28;20641;-80
2021/04/03 10:47:48;;;;;;;17.37;4.93;;;11.40;99.90;;;;;;5030912;28;20249;-89
2021/04/03 10:50:15;;;;;;;18.17;4.83;;;11.20;99.90;;;;;;5029991;28;20396;-85
2021/04/03 10:52:42;;;;;;;16.37;4.13;;;11.10;99.90;;;;;;5030503;28;20228;-83
2021/04/03 10:55:09;;;;;;;16.07;4.13;;;11.10;99.90;;;;;;5029777;28;20217;-83
2021/04/03 10:57:36;;;;;;;22.20;4.57;;;11.20;99.90;;;;;;5042329;28;20220;-90
2021/04/03 11:00:04;;;;;;;24.77;5.33;;;11.10;99.90;;;;;;5045440;28;20634;-85
2021/04/03 11:02:30;;;;;;;17.33;4.13;;;11.10;99.90;;;;;;5027593;28;20202;-81
2021/04/03 11:04:56;;;;;;;23.47;4.87;;;11.20;99.90;;;;;;5027921;28;20229;-84
2021/04/03 11:07:23;;;;;;;22.67;4.90;;;11.10;99.90;;;;;;5042421;28;20201;-81
2021/04/03 11:09:49;;;;;;;17.27;3.83;;;11.20;99.90;;;;;;5066487;28;20197;-81
2021/04/03 11:12:15;;;;;;;16.70;4.20;;;11.20;99.90;;;;;;5066597;28;20266;-84
2021/04/03 11:14:42;;;;;;;17.50;4.67;;;11.30;99.90;;;;;;5067522;28;20201;-83
2021/04/03 11:17:09;;;;;;;20.53;4.27;;;11.40;99.90;;;;;;5041907;28;20214;-81
2021/04/03 11:19:35;;;;;;;14.17;3.37;;;11.50;99.90;;;;;;5027686;28;20233;-83
2021/04/03 11:22:02;;;;;;;17.70;3.80;;;11.70;99.90;;;;;;5027599;28;20728;-89
2021/04/03 11:24:28;;;;;;;11.47;3.83;;;11.90;99.90;;;;;;5027734;28;20227;-86
2021/04/03 11:26:55;;;;;;;16.60;3.83;;;11.80;99.90;;;;;;5027644;28;20202;-83
2021/04/03 11:29:21;;;;;;;16.97;3.77;;;11.90;99.90;;;;;;5027841;28;20222;-85
2021/04/03 11:31:48;;;;;;;15.03;3.87;;;11.80;99.90;;;;;;5027852;28;20202;-86
2021/04/03 11:34:16;;;;;;;16.47;4.33;;;12.00;99.90;;;;;;5048036;28;20336;-86
2021/04/03 11:36:42;;;;;;;15.13;3.67;;;12.00;99.90;;;;;;5048013;28;20201;-86
2021/04/03 11:39:08;;;;;;;15.73;3.70;;;12.20;99.90;;;;;;5031790;28;20217;-81
2021/04/03 11:41:35;;;;;;;13.43;4.73;;;12.30;99.90;;;;;;5027324;28;20199;-81
2021/04/03 11:44:01;;;;;;;14.43;4.20;;;12.40;99.90;;;;;;5026230;28;20578;-88
2021/04/03 11:46:28;;;;;;;19.27;4.13;;;12.20;99.90;;;;;;5025763;28;20893;-82
2021/04/03 11:48:55;;;;;;;12.60;3.60;;;11.90;99.90;;;;;;5025617;28;20242;-84
2021/04/03 11:51:21;;;;;;;18.03;4.67;;;12.20;99.90;;;;;;5028337;28;20474;-85
2021/04/03 11:53:50;;;;;;;15.93;4.60;;;12.30;99.90;;;;;;5026270;28;20222;-82
2021/04/03 11:56:16;;;;;;;16.87;3.90;;;12.20;99.90;;;;;;5025937;28;20255;-85
2021/04/03 11:58:43;;;;;;;16.37;3.93;;;12.40;99.90;;;;;;5026222;28;20213;-82
2021/04/03 12:01:10;;;;;;;17.83;4.33;;;12.60;99.90;;;;;;5026551;28;20213;-83
2021/04/03 12:03:36;;;;;;;18.17;4.60;;;12.70;99.90;;;;;;5025739;28;20210;-79
2021/04/03 12:06:03;;;;;;;18.83;4.23;;;12.80;99.90;;;;;;5025052;28;20242;-83
2021/04/03 12:08:29;;;;;;;18.57;3.90;;;12.90;99.90;;;;;;5024383;28;20583;-90
2021/04/03 12:10:56;;;;;;;14.07;4.37;;;12.90;99.90;;;;;;5024795;28;20222;-82
2021/04/03 12:13:22;;;;;;;15.67;4.80;;;12.90;99.90;;;;;;5023596;28;20210;-78
2021/04/03 12:15:48;;;;;;;14.07;3.73;;;12.90;99.90;;;;;;5021911;28;20210;-86
2021/04/03 12:18:14;;;;;;;17.23;4.03;;;12.90;99.90;;;;;;5023959;28;20198;-81
2021/04/03 12:20:41;;;;;;;20.87;4.00;;;13.10;99.90;;;;;;5025031;28;20218;-83
2021/04/03 12:23:08;;;;;;;15.63;3.90;;;13.10;99.90;;;;;;5033504;28;20201;-80
2021/04/03 12:25:34;;;;;;;14.20;3.43;;;13.00;99.90;;;;;;5045856;28;20229;-83
2021/04/03 12:28:00;;;;;;;19.03;4.60;;;13.20;99.90;;;;;;5044622;28;20217;-86
2021/04/03 12:30:27;;;;;;;20.17;4.53;;;13.20;99.90;;;;;;5044169;28;20205;-86
2021/04/03 12:32:53;;;;;;;18.83;4.73;;;13.30;99.90;;;;;;5034228;28;20260;-85
2021/04/03 12:35:19;;;;;;;15.70;3.97;;;13.10;99.90;;;;;;5023850;28;20624;-85
2021/04/03 12:37:45;;;;;;;18.50;3.73;;;13.10;99.90;;;;;;5025718;28;20203;-81
2021/04/03 12:40:14;;;;;;;22.37;3.70;;;13.00;99.90;;;;;;5024892;28;20580;-81
2021/04/03 12:42:40;;;;;;;12.20;3.67;;;13.20;99.90;;;;;;5025074;28;20205;-82
2021/04/03 12:45:07;;;;;;;20.47;3.63;;;13.30;99.90;;;;;;5025074;28;20230;-80
2021/04/03 12:47:34;;;;;;;18.60;4.37;;;13.30;99.90;;;;;;5023853;28;21032;-81